Terminal Aerodrome Forecast
Issued by NWS Austin/San Antonio, TX

Home | Current Version | Previous Version | Text Only | Print | Product List | Glossary On
Versions: 1 2 3 4 5 6 7 8 9 10 11 12 13
000
FTUS44 KEWX 281300 AAA
TAFDRT
TAF AMD
KDRT 281300Z 2813/2912 11010KT P6SM BKN015
     FM281800 14012KT P6SM FEW060
     FM290200 11010KT P6SM SKC=

USA.gov is the U.S. government's official web portal to all federal, state and local government web resources and services.